createdAt,value
2019-04-04T00:00:56.914Z,8.00
2019-04-04T00:01:56.866Z,8.00
2019-04-04T00:02:56.856Z,8.00
2019-04-04T00:03:56.841Z,8.00
2019-04-04T00:04:57.891Z,8.00
2019-04-04T00:05:57.122Z,8.00
2019-04-04T00:06:58.109Z,8.00
2019-04-04T00:07:58.124Z,8.00
2019-04-04T00:08:56.785Z,8.00
2019-04-04T00:09:56.779Z,8.00
2019-04-04T00:10:56.764Z,8.00
2019-04-04T00:11:56.761Z,8.00
2019-04-04T00:12:56.785Z,8.00
2019-04-04T00:13:56.743Z,8.00
2019-04-04T00:15:07.078Z,8.00
2019-04-04T00:15:56.713Z,8.00
2019-04-04T00:16:56.699Z,8.00
2019-04-04T00:17:56.701Z,8.00
2019-04-04T00:18:58.494Z,8.00
2019-04-04T00:19:56.672Z,8.00
2019-04-04T00:20:56.661Z,8.00
2019-04-04T00:21:56.650Z,8.00
2019-04-04T00:22:56.648Z,8.00
2019-04-04T00:23:56.628Z,8.00
2019-04-04T00:24:56.630Z,8.00
2019-04-04T00:25:56.613Z,8.00
2019-04-04T00:26:56.597Z,8.00
2019-04-04T00:27:56.594Z,8.00
2019-04-04T00:28:56.585Z,8.00
2019-04-04T00:29:56.604Z,8.00
2019-04-04T00:30:56.559Z,8.00
2019-04-04T00:31:56.542Z,8.00
2019-04-04T00:32:56.538Z,8.00
2019-04-04T00:33:56.532Z,8.00
2019-04-04T00:34:57.873Z,8.00
2019-04-04T00:35:56.513Z,8.00
2019-04-04T00:36:56.535Z,8.00
2019-04-04T00:37:56.487Z,8.00
2019-04-04T00:38:56.471Z,8.00
2019-04-04T00:39:56.470Z,8.00
2019-04-04T00:40:56.454Z,8.00
2019-04-04T00:41:56.438Z,8.00
2019-04-04T00:42:56.464Z,8.00
2019-04-04T00:43:56.420Z,8.00
2019-04-04T00:44:56.405Z,8.00
2019-04-04T00:46:06.715Z,8.00
2019-04-04T00:46:56.388Z,8.00
2019-04-04T00:47:56.421Z,8.00
2019-04-04T00:48:56.372Z,8.00
2019-04-04T00:49:56.358Z,8.00
2019-04-04T00:50:56.359Z,8.00
2019-04-04T00:51:56.335Z,8.00
2019-04-04T00:52:56.372Z,8.00
2019-04-04T00:53:56.321Z,8.00
2019-04-04T00:54:56.310Z,8.00
2019-04-04T00:55:56.294Z,8.00
2019-04-04T00:56:56.283Z,8.00
2019-04-04T00:57:56.346Z,8.00
2019-04-04T00:58:56.270Z,8.00
2019-04-04T00:59:56.255Z,8.00
2019-04-04T01:00:56.246Z,8.00
2019-04-04T01:01:56.994Z,8.00
2019-04-04T01:02:58.339Z,8.00
2019-04-04T01:03:56.251Z,8.00
2019-04-04T01:04:56.199Z,8.00
2019-04-04T01:05:56.194Z,8.00
2019-04-04T01:06:56.178Z,8.00
2019-04-04T01:07:56.169Z,8.00
2019-04-04T01:08:56.166Z,8.00
2019-04-04T01:09:56.166Z,8.00
2019-04-04T01:10:56.185Z,8.00
2019-04-04T01:11:56.130Z,8.00
2019-04-04T01:12:56.115Z,8.00
2019-04-04T01:13:57.820Z,8.00
2019-04-04T01:14:56.096Z,8.00
2019-04-04T01:15:56.096Z,8.00
2019-04-04T01:17:06.419Z,8.00
2019-04-04T01:17:56.065Z,8.00
2019-04-04T01:18:56.068Z,8.00
2019-04-04T01:19:56.081Z,8.00
2019-04-04T01:20:56.036Z,8.00
2019-04-04T01:21:56.023Z,8.00
2019-04-04T01:22:56.644Z,8.00
2019-04-04T01:23:58.121Z,8.00
2019-04-04T01:24:55.989Z,8.00
2019-04-04T01:25:56.031Z,8.00
2019-04-04T01:26:55.982Z,8.00
2019-04-04T01:27:55.960Z,8.00
2019-04-04T01:28:55.948Z,8.00
2019-04-04T01:29:55.938Z,8.00
2019-04-04T01:30:55.927Z,8.00
2019-04-04T01:31:55.940Z,8.00
2019-04-04T01:32:55.910Z,8.00
2019-04-04T01:33:55.896Z,8.00
2019-04-04T01:34:55.890Z,8.00
2019-04-04T01:35:55.876Z,8.00
2019-04-04T01:36:56.481Z,8.00
2019-04-04T01:37:56.100Z,8.00
2019-04-04T01:38:55.848Z,8.00
2019-04-04T01:39:55.835Z,8.00
2019-04-04T01:40:55.826Z,8.00
2019-04-04T01:41:55.820Z,8.00
2019-04-04T01:42:55.847Z,8.00
2019-04-04T01:44:04.943Z,8.00
2019-04-04T01:44:56.788Z,8.00
2019-04-04T01:45:55.774Z,8.00
2019-04-04T01:46:55.765Z,8.00
2019-04-04T01:48:06.967Z,8.00
2019-04-04T01:48:55.739Z,8.00
2019-04-04T01:49:55.728Z,8.00
2019-04-04T01:50:55.723Z,8.00
2019-04-04T01:51:57.667Z,8.00
2019-04-04T01:52:59.009Z,8.00
2019-04-04T01:53:55.705Z,8.00
2019-04-04T01:54:55.681Z,8.00
2019-04-04T01:55:55.670Z,8.00
2019-04-04T01:56:55.662Z,4.00
2019-04-04T01:57:55.650Z,8.00
2019-04-04T01:58:55.640Z,8.00
2019-04-04T01:59:55.663Z,8.00
2019-04-04T02:00:55.618Z,8.00
2019-04-04T02:01:55.608Z,8.00
2019-04-04T02:02:55.596Z,8.00
2019-04-04T02:03:55.584Z,8.00
2019-04-04T02:04:55.968Z,8.00
2019-04-04T02:05:56.190Z,8.00
2019-04-04T02:06:58.992Z,8.00
2019-04-04T02:07:55.547Z,8.00
2019-04-04T02:08:55.535Z,8.00
2019-04-04T02:09:55.527Z,8.00
2019-04-04T02:10:55.522Z,8.00
2019-04-04T02:11:55.522Z,8.00
2019-04-04T02:12:55.493Z,4.00
2019-04-04T02:13:55.489Z,8.00
2019-04-04T02:14:55.476Z,8.00
2019-04-04T02:15:55.465Z,4.00
2019-04-04T02:16:55.457Z,4.00
2019-04-04T02:17:55.464Z,4.00
2019-04-04T02:19:08.460Z,4.00
2019-04-04T02:19:56.323Z,4.00
2019-04-04T02:20:57.587Z,4.00
2019-04-04T02:21:55.403Z,4.00
2019-04-04T02:22:55.389Z,4.00
2019-04-04T02:23:55.376Z,4.00
2019-04-04T02:24:55.383Z,4.00
2019-04-04T02:25:55.364Z,4.00
2019-04-04T02:26:55.350Z,4.00
2019-04-04T02:27:55.337Z,4.00
2019-04-04T02:28:55.325Z,4.00
2019-04-04T02:29:55.314Z,4.00
2019-04-04T02:30:55.324Z,4.00
2019-04-04T02:31:55.292Z,4.00
2019-04-04T02:32:59.463Z,4.00
2019-04-04T02:33:56.278Z,4.00
2019-04-04T02:34:55.273Z,4.00
2019-04-04T02:35:55.257Z,8.00
2019-04-04T02:36:55.257Z,8.00
2019-04-04T02:37:56.124Z,8.00
2019-04-04T02:38:57.584Z,8.00
2019-04-04T02:39:55.207Z,8.00
2019-04-04T02:40:55.233Z,8.00
2019-04-04T02:41:55.217Z,4.00
2019-04-04T02:42:55.598Z,8.00
2019-04-04T02:43:55.177Z,8.00
2019-04-04T02:44:55.162Z,8.00
2019-04-04T02:45:55.153Z,12.00
2019-04-04T02:46:55.143Z,8.00
2019-04-04T02:47:55.170Z,12.00
2019-04-04T02:48:56.232Z,8.00
2019-04-04T02:50:05.971Z,12.00
2019-04-04T02:50:55.097Z,12.00
2019-04-04T02:51:55.083Z,16.00
2019-04-04T02:52:55.075Z,16.00
2019-04-04T02:53:55.115Z,16.00
2019-04-04T02:54:58.294Z,16.00
2019-04-04T02:55:55.046Z,16.00
2019-04-04T02:56:55.037Z,20.00
2019-04-04T02:57:55.031Z,20.00
2019-04-04T02:58:55.017Z,24.00
2019-04-04T02:59:55.048Z,24.00
2019-04-04T03:00:59.325Z,28.00
2019-04-04T03:01:55.984Z,32.00
2019-04-04T03:02:54.981Z,36.00
2019-04-04T03:03:54.960Z,40.00
2019-04-04T03:04:54.952Z,44.00
2019-04-04T03:05:54.955Z,52.00
2019-04-04T03:06:57.634Z,56.00
2019-04-04T03:07:54.919Z,64.00
2019-04-04T03:08:54.917Z,68.00
2019-04-04T03:09:54.988Z,76.00
2019-04-04T03:10:54.958Z,84.00
2019-04-04T03:11:54.894Z,92.00
2019-04-04T03:12:58.173Z,104.00
2019-04-04T03:13:54.862Z,112.00
2019-04-04T03:14:54.845Z,128.00
2019-04-04T03:15:54.842Z,140.00
2019-04-04T03:16:56.900Z,156.00
2019-04-04T03:17:54.813Z,168.00
2019-04-04T03:18:54.806Z,184.00
2019-04-04T03:19:54.803Z,204.00
2019-04-04T03:21:05.486Z,224.00
2019-04-04T03:21:56.033Z,244.00
2019-04-04T03:22:54.776Z,264.00
2019-04-04T03:23:54.771Z,284.00
2019-04-04T03:24:54.746Z,308.00
2019-04-04T03:25:54.751Z,332.00
2019-04-04T03:26:54.724Z,356.00
2019-04-04T03:27:57.779Z,380.00
2019-04-04T03:28:54.701Z,412.00
2019-04-04T03:29:54.702Z,440.00
2019-04-04T03:31:01.946Z,468.00
2019-04-04T03:31:55.665Z,500.00
2019-04-04T03:32:55.389Z,532.00
2019-04-04T03:33:54.702Z,560.00
2019-04-04T03:34:54.643Z,592.00
2019-04-04T03:35:54.631Z,632.00
2019-04-04T03:36:54.619Z,668.00
2019-04-04T03:37:54.607Z,700.00
2019-04-04T03:38:54.597Z,740.00
2019-04-04T03:39:54.604Z,776.00
2019-04-04T03:40:57.272Z,816.00
2019-04-04T03:41:54.589Z,856.00
2019-04-04T03:42:54.557Z,900.00
2019-04-04T03:43:54.556Z,940.00
2019-04-04T03:44:54.639Z,984.00
2019-04-04T03:45:54.533Z,1028.00
2019-04-04T03:46:54.521Z,1068.00
2019-04-04T03:47:54.508Z,1116.00
2019-04-04T03:48:54.495Z,1160.00
2019-04-04T03:49:57.565Z,1204.00
2019-04-04T03:50:57.116Z,1248.00
2019-04-04T03:52:10.219Z,1292.00
2019-04-04T03:52:55.455Z,1340.00
2019-04-04T03:53:54.443Z,1384.00
2019-04-04T03:54:56.204Z,1432.00
2019-04-04T03:55:54.420Z,1476.00
2019-04-04T03:56:54.425Z,1524.00
2019-04-04T03:57:55.283Z,1568.00
2019-04-04T03:58:54.391Z,1616.00
2019-04-04T03:59:54.379Z,1664.00
2019-04-04T04:00:54.389Z,1712.00
2019-04-04T04:01:54.359Z,1760.00
2019-04-04T04:02:54.377Z,1808.00
2019-04-04T04:03:55.455Z,1856.00
2019-04-04T04:04:54.325Z,1900.00
2019-04-04T04:05:54.325Z,1952.00
2019-04-04T04:06:54.321Z,1996.00
2019-04-04T04:07:54.297Z,2044.00
2019-04-04T04:08:55.194Z,2096.00
2019-04-04T04:09:59.088Z,2140.00
2019-04-04T04:10:55.260Z,2188.00
2019-04-04T04:11:54.280Z,2236.00
2019-04-04T04:12:54.243Z,2284.00
2019-04-04T04:13:54.254Z,2332.00
2019-04-04T04:14:55.069Z,2380.00
2019-04-04T04:15:54.268Z,2428.00
2019-04-04T04:16:54.197Z,2476.00
2019-04-04T04:17:54.305Z,2524.00
2019-04-04T04:18:55.214Z,2572.00
2019-04-04T04:19:54.175Z,2620.00
2019-04-04T04:20:54.156Z,2668.00
2019-04-04T04:21:54.149Z,2712.00
2019-04-04T04:23:04.506Z,2760.00
2019-04-04T04:23:57.181Z,2812.00
2019-04-04T04:24:54.117Z,2856.00
2019-04-04T04:25:54.106Z,2908.00
2019-04-04T04:26:54.102Z,2956.00
2019-04-04T04:27:54.090Z,3004.00
2019-04-04T04:28:54.077Z,3052.00
2019-04-04T04:29:54.116Z,3100.00
2019-04-04T04:30:54.065Z,3148.00
2019-04-04T04:31:54.064Z,3192.00
2019-04-04T04:32:57.020Z,3240.00
2019-04-04T04:33:54.027Z,3284.00
2019-04-04T04:34:54.019Z,3332.00
2019-04-04T04:35:54.064Z,3376.00
2019-04-04T04:36:53.990Z,3428.00
2019-04-04T04:37:54.105Z,3464.00
2019-04-04T04:38:58.932Z,3512.00
2019-04-04T04:39:54.959Z,3552.00
2019-04-04T04:40:53.953Z,3596.00
2019-04-04T04:41:54.468Z,3636.00
2019-04-04T04:42:53.950Z,3680.00
2019-04-04T04:43:53.924Z,3720.00
2019-04-04T04:44:53.907Z,3760.00
2019-04-04T04:45:53.911Z,3796.00
2019-04-04T04:46:53.922Z,3836.00
2019-04-04T04:47:57.052Z,3876.00
2019-04-04T04:48:53.866Z,3916.00
2019-04-04T04:49:55.371Z,3948.00
2019-04-04T04:50:53.846Z,3976.00
2019-04-04T04:51:53.837Z,4020.00
2019-04-04T04:52:53.866Z,4056.00
2019-04-04T04:54:03.824Z,4092.00
2019-04-04T04:54:54.710Z,4116.00
2019-04-04T04:55:53.791Z,4164.00
2019-04-04T04:56:53.782Z,4196.00
2019-04-04T04:57:56.312Z,4232.00
2019-04-04T04:58:55.494Z,4272.00
2019-04-04T04:59:53.746Z,4312.00
2019-04-04T05:00:53.840Z,4344.00
2019-04-04T05:01:53.741Z,4388.00
2019-04-04T05:02:53.818Z,4428.00
2019-04-04T05:03:54.180Z,4464.00
2019-04-04T05:04:53.694Z,4500.00
2019-04-04T05:05:53.687Z,4540.00
2019-04-04T05:06:53.680Z,4572.00
2019-04-04T05:07:55.039Z,4616.00
2019-04-04T05:08:53.682Z,4660.00
2019-04-04T05:09:53.681Z,4692.00
2019-04-04T05:10:53.635Z,4732.00
2019-04-04T05:11:53.628Z,4776.00
2019-04-04T05:12:53.786Z,4816.00
2019-04-04T05:13:53.676Z,4852.00
2019-04-04T05:14:53.587Z,4896.00
2019-04-04T05:15:53.589Z,4936.00
2019-04-04T05:16:53.566Z,4968.00
2019-04-04T05:17:53.558Z,5008.00
2019-04-04T05:18:53.547Z,5040.00
2019-04-04T05:19:53.539Z,5076.00
2019-04-04T05:20:53.567Z,5112.00
2019-04-04T05:21:53.557Z,5168.00
2019-04-04T05:22:53.513Z,5196.00
2019-04-04T05:23:53.495Z,5236.00
2019-04-04T05:25:08.247Z,5272.00
2019-04-04T05:25:54.541Z,5312.00
2019-04-04T05:26:53.499Z,5352.00
2019-04-04T05:27:53.460Z,5388.00
2019-04-04T05:28:53.457Z,5428.00
2019-04-04T05:29:53.479Z,5472.00
2019-04-04T05:30:53.440Z,5504.00
2019-04-04T05:31:53.408Z,5532.00
2019-04-04T05:32:56.413Z,5576.00
2019-04-04T05:33:53.391Z,5604.00
2019-04-04T05:34:53.411Z,5640.00
2019-04-04T05:35:53.383Z,5672.00
2019-04-04T05:36:54.200Z,5708.00
2019-04-04T05:37:53.346Z,5728.00
2019-04-04T05:38:53.342Z,5752.00
2019-04-04T05:39:55.320Z,5788.00
2019-04-04T05:40:55.441Z,5816.00
2019-04-04T05:41:53.305Z,5848.00
2019-04-04T05:42:53.339Z,5884.00
2019-04-04T05:43:53.298Z,5908.00
2019-04-04T05:44:53.301Z,5944.00
2019-04-04T05:45:53.261Z,5972.00
2019-04-04T05:46:53.263Z,5992.00
2019-04-04T05:47:56.356Z,6008.00
2019-04-04T05:48:54.225Z,6020.00
2019-04-04T05:49:53.222Z,6020.00
2019-04-04T05:50:53.224Z,6048.00
2019-04-04T05:51:53.245Z,6060.00
2019-04-04T05:52:53.192Z,6068.00
2019-04-04T05:53:53.277Z,6076.00
2019-04-04T05:54:53.166Z,6084.00
2019-04-04T05:56:06.552Z,6100.00
2019-04-04T05:56:53.142Z,6108.00
2019-04-04T05:57:53.221Z,6120.00
2019-04-04T05:58:53.719Z,6092.00
2019-04-04T05:59:55.334Z,6092.00
2019-04-04T06:00:53.097Z,6076.00
2019-04-04T06:01:53.106Z,6052.00
2019-04-04T06:02:53.078Z,6016.00
2019-04-04T06:03:53.652Z,6020.00
2019-04-04T06:04:55.425Z,6012.00
2019-04-04T06:05:53.059Z,5952.00
2019-04-04T06:06:55.464Z,5880.00
2019-04-04T06:07:53.026Z,5812.00
2019-04-04T06:08:53.032Z,5804.00
2019-04-04T06:09:53.037Z,5852.00
2019-04-04T06:10:53.011Z,5940.00
2019-04-04T06:11:53.757Z,5940.00
2019-04-04T06:12:54.356Z,5972.00
2019-04-04T06:13:52.966Z,6152.00
2019-04-04T06:14:53.039Z,6236.00
2019-04-04T06:15:52.944Z,6252.00
2019-04-04T06:16:52.997Z,6336.00
2019-04-04T06:17:52.941Z,6400.00
2019-04-04T06:18:52.925Z,6464.00
2019-04-04T06:19:52.898Z,6544.00
2019-04-04T06:20:52.890Z,6668.00
2019-04-04T06:21:52.877Z,6896.00
2019-04-04T06:22:52.926Z,7172.00
2019-04-04T06:23:55.656Z,7408.00
2019-04-04T06:24:52.844Z,7628.00
2019-04-04T06:25:52.882Z,7832.00
2019-04-04T06:27:03.753Z,8028.00
2019-04-04T06:27:52.818Z,8152.00
2019-04-04T06:28:52.812Z,8264.00
2019-04-04T06:29:52.801Z,8392.00
2019-04-04T06:30:54.219Z,8492.00
2019-04-04T06:31:52.783Z,8620.00
2019-04-04T06:32:52.768Z,8772.00
2019-04-04T06:33:52.773Z,8816.00
2019-04-04T06:34:52.762Z,8944.00
2019-04-04T06:35:52.732Z,9176.00
2019-04-04T06:36:52.748Z,9340.00
2019-04-04T06:37:52.709Z,9872.00
2019-04-04T06:38:53.947Z,11524.00
2019-04-04T06:39:54.341Z,13680.00
2019-04-04T06:40:52.690Z,14432.00
2019-04-04T06:41:52.671Z,14268.00
2019-04-04T06:42:52.665Z,15248.00
2019-04-04T06:43:52.668Z,15988.00
2019-04-04T06:44:54.193Z,17024.00
2019-04-04T06:45:52.625Z,17504.00
2019-04-04T06:46:53.481Z,18048.00
2019-04-04T06:47:52.597Z,18400.00
2019-04-04T06:48:52.620Z,18656.00
2019-04-04T06:49:52.584Z,17728.00
2019-04-04T06:50:52.596Z,16640.00
2019-04-04T06:51:52.586Z,17504.00
2019-04-04T06:52:52.551Z,19872.00
2019-04-04T06:53:53.764Z,21216.00
2019-04-04T06:54:52.528Z,21504.00
2019-04-04T06:55:52.513Z,21888.00
2019-04-04T06:56:52.546Z,21440.00
2019-04-04T06:58:04.002Z,22080.00
2019-04-04T06:58:52.483Z,22304.00
2019-04-04T06:59:52.476Z,22144.00
2019-04-04T07:00:52.495Z,22272.00
2019-04-04T07:01:52.694Z,23072.00
2019-04-04T07:02:55.230Z,23744.00
2019-04-04T07:03:52.770Z,23872.00
2019-04-04T07:04:52.422Z,23840.00
2019-04-04T07:05:52.409Z,24640.00
2019-04-04T07:06:52.446Z,24736.00
2019-04-04T07:07:52.398Z,25248.00
2019-04-04T07:08:52.380Z,25440.00
2019-04-04T07:09:52.366Z,26400.00
2019-04-04T07:10:57.788Z,27264.00
2019-04-04T07:11:53.384Z,27104.00
2019-04-04T07:13:05.937Z,27616.00
2019-04-04T07:13:53.319Z,28064.00
2019-04-04T07:14:52.326Z,28512.00
2019-04-04T07:16:06.060Z,29216.00
2019-04-04T07:16:53.391Z,29920.00
2019-04-04T07:17:52.299Z,31136.00
2019-04-04T07:18:52.267Z,31680.00
2019-04-04T07:19:52.261Z,31488.00
2019-04-04T07:20:52.248Z,31616.00
2019-04-04T07:21:52.266Z,31040.00
2019-04-04T07:22:55.624Z,32128.00
2019-04-04T07:23:52.216Z,33440.00
2019-04-04T07:24:52.208Z,33856.00
2019-04-04T07:25:53.510Z,34720.00
2019-04-04T07:26:52.210Z,36512.00
2019-04-04T07:27:52.174Z,36896.00
2019-04-04T07:29:03.131Z,37184.00
2019-04-04T07:29:52.152Z,38592.00
2019-04-04T07:30:54.453Z,39872.00
2019-04-04T07:31:52.133Z,39040.00
2019-04-04T07:32:52.135Z,39456.00
2019-04-04T07:33:52.105Z,39904.00
2019-04-04T07:34:52.110Z,39072.00
2019-04-04T07:35:52.096Z,40352.00
2019-04-04T07:36:52.079Z,42272.00
2019-04-04T07:37:55.398Z,41248.00
2019-04-04T07:38:53.060Z,40960.00
2019-04-04T07:39:52.047Z,42240.00
2019-04-04T07:40:52.095Z,42848.00
2019-04-04T07:41:52.021Z,42752.00
2019-04-04T07:42:52.008Z,41984.00
2019-04-04T07:43:52.348Z,42656.00
2019-04-04T07:44:54.376Z,43872.00
2019-04-04T07:45:51.991Z,44416.00
2019-04-04T07:46:51.974Z,42624.00
2019-04-04T07:47:51.958Z,43680.00
2019-04-04T07:48:52.348Z,44000.00
2019-04-04T07:49:53.189Z,44992.00
2019-04-04T07:50:51.920Z,47904.00
2019-04-04T07:51:51.913Z,47136.00
2019-04-04T07:52:51.897Z,47040.00
2019-04-04T07:53:51.890Z,47488.00
2019-04-04T07:54:51.910Z,47904.00
2019-04-04T07:55:51.888Z,48544.00
2019-04-04T07:56:52.618Z,47616.00
2019-04-04T07:57:51.848Z,47136.00
2019-04-04T07:58:51.837Z,48896.00
2019-04-04T08:00:02.665Z,50272.00
2019-04-04T08:00:51.819Z,51456.00
2019-04-04T08:01:51.805Z,51104.00
2019-04-04T08:02:51.796Z,51840.00
2019-04-04T08:03:51.784Z,51104.00
2019-04-04T08:04:51.771Z,51680.00
2019-04-04T08:05:51.795Z,51744.00
2019-04-04T08:06:51.776Z,52224.00
2019-04-04T08:07:51.739Z,51680.00
2019-04-04T08:08:51.729Z,50944.00
2019-04-04T08:09:51.725Z,52192.00
2019-04-04T08:10:51.709Z,54272.00
2019-04-04T08:11:51.710Z,56384.00
2019-04-04T08:12:51.694Z,56832.00
2019-04-04T08:13:51.671Z,55488.00
2019-04-04T08:14:51.689Z,56928.00
2019-04-04T08:15:51.660Z,58112.00
2019-04-04T08:16:51.667Z,59936.00
2019-04-04T08:17:51.634Z,58784.00
2019-04-04T08:18:51.619Z,59072.00
2019-04-04T08:19:59.555Z,60544.00
2019-04-04T08:20:52.604Z,59104.00
2019-04-04T08:21:51.608Z,58432.00
2019-04-04T08:22:51.634Z,61152.00
2019-04-04T08:23:51.567Z,61856.00
2019-04-04T08:24:51.559Z,61280.00
2019-04-04T08:25:51.549Z,62688.00
2019-04-04T08:26:51.538Z,62560.00
2019-04-04T08:27:51.526Z,61472.00
2019-04-04T08:28:51.519Z,62240.00
2019-04-04T08:29:51.503Z,64160.00
2019-04-04T08:31:01.892Z,63936.00
2019-04-04T08:31:51.485Z,61696.00
2019-04-04T08:32:51.475Z,63040.00
2019-04-04T08:33:51.482Z,63968.00
2019-04-04T08:34:51.447Z,63072.00
2019-04-04T08:35:51.444Z,62080.00
2019-04-04T08:36:51.430Z,61696.00
2019-04-04T08:37:51.419Z,62688.00
2019-04-04T08:38:51.419Z,66272.00
2019-04-04T08:39:51.417Z,65728.00
2019-04-04T08:40:51.410Z,62272.00
2019-04-04T08:41:52.530Z,61984.00
2019-04-04T08:42:51.539Z,63840.00
2019-04-04T08:43:51.356Z,65184.00
2019-04-04T08:44:51.385Z,65664.00
2019-04-04T08:45:51.338Z,66240.00
2019-04-04T08:46:51.325Z,65824.00
2019-04-04T08:47:51.308Z,64544.00
2019-04-04T08:48:51.318Z,62848.00
2019-04-04T08:49:51.294Z,63872.00
2019-04-04T08:50:51.335Z,65760.00
2019-04-04T08:51:51.272Z,66368.00
2019-04-04T08:52:51.258Z,67488.00
2019-04-04T08:53:51.255Z,67680.00
2019-04-04T08:54:51.233Z,66976.00
2019-04-04T08:55:51.267Z,66176.00
2019-04-04T08:56:51.224Z,67840.00
2019-04-04T08:57:51.205Z,69056.00
2019-04-04T08:58:51.779Z,68320.00
2019-04-04T08:59:51.256Z,68288.00
2019-04-04T09:00:51.187Z,71168.00
2019-04-04T09:02:01.752Z,72416.00
2019-04-04T09:02:51.156Z,71872.00
2019-04-04T09:03:51.142Z,72512.00
2019-04-04T09:04:51.132Z,72288.00
2019-04-04T09:05:51.131Z,71744.00
2019-04-04T09:06:51.147Z,70848.00
2019-04-04T09:07:51.109Z,72480.00
2019-04-04T09:08:51.141Z,73600.00
2019-04-04T09:09:51.212Z,73472.00
2019-04-04T09:10:51.066Z,73760.00
2019-04-04T09:11:51.061Z,74592.00
2019-04-04T09:12:51.108Z,76032.00
2019-04-04T09:13:51.735Z,75040.00
2019-04-04T09:14:51.027Z,74368.00
2019-04-04T09:15:51.056Z,72704.00
2019-04-04T09:16:51.007Z,71872.00
2019-04-04T09:17:50.996Z,73056.00
2019-04-04T09:18:51.039Z,73536.00
2019-04-04T09:19:50.972Z,75296.00
2019-04-04T09:20:50.993Z,76608.00
2019-04-04T09:21:50.957Z,78080.00
2019-04-04T09:22:50.945Z,78624.00
2019-04-04T09:23:50.931Z,78880.00
2019-04-04T09:24:50.962Z,77952.00
2019-04-04T09:25:50.911Z,79168.00
2019-04-04T09:26:50.912Z,78016.00
2019-04-04T09:27:50.905Z,79872.00
2019-04-04T09:28:50.879Z,79168.00
2019-04-04T09:29:50.872Z,80224.00
2019-04-04T09:30:50.957Z,79488.00
2019-04-04T09:31:50.893Z,78752.00
2019-04-04T09:33:01.557Z,82016.00
2019-04-04T09:33:50.829Z,82304.00
2019-04-04T09:34:50.831Z,81696.00
2019-04-04T09:35:50.850Z,79840.00
2019-04-04T09:36:50.796Z,80800.00
2019-04-04T09:37:50.789Z,81600.00
2019-04-04T09:38:50.781Z,83680.00
2019-04-04T09:39:50.768Z,83264.00
2019-04-04T09:40:50.760Z,83808.00
2019-04-04T09:41:50.816Z,83296.00
2019-04-04T09:42:50.741Z,82592.00
2019-04-04T09:43:50.732Z,86208.00
2019-04-04T09:44:50.719Z,84064.00
2019-04-04T09:45:50.713Z,84768.00
2019-04-04T09:46:50.706Z,83488.00
2019-04-04T09:47:50.696Z,86592.00
2019-04-04T09:48:50.676Z,83936.00
2019-04-04T09:49:50.662Z,85440.00
2019-04-04T09:50:50.662Z,80992.00
2019-04-04T09:51:50.648Z,79808.00
2019-04-04T09:52:50.672Z,81536.00
2019-04-04T09:53:53.253Z,81408.00
2019-04-04T09:54:50.626Z,83488.00
2019-04-04T09:55:50.599Z,86112.00
2019-04-04T09:56:50.596Z,84096.00
2019-04-04T09:57:50.583Z,84544.00
2019-04-04T09:58:50.609Z,85184.00
2019-04-04T09:59:50.566Z,83168.00
2019-04-04T10:00:50.554Z,82336.00
2019-04-04T10:01:50.546Z,83328.00
2019-04-04T10:02:50.530Z,84448.00
2019-04-04T10:04:02.309Z,86016.00
2019-04-04T10:04:50.530Z,84544.00
2019-04-04T10:05:51.297Z,84640.00
2019-04-04T10:06:50.493Z,85152.00
2019-04-04T10:07:50.484Z,86336.00
2019-04-04T10:08:51.263Z,87456.00
2019-04-04T10:09:50.466Z,86048.00
2019-04-04T10:10:50.451Z,86880.00
2019-04-04T10:11:50.442Z,85088.00
2019-04-04T10:12:50.429Z,86048.00
2019-04-04T10:13:50.434Z,84384.00
2019-04-04T10:14:50.417Z,84928.00
2019-04-04T10:15:50.407Z,85504.00
2019-04-04T10:16:50.400Z,86656.00
2019-04-04T10:17:50.382Z,85888.00
2019-04-04T10:18:50.366Z,89120.00
2019-04-04T10:19:50.401Z,86848.00
2019-04-04T10:20:50.386Z,89472.00
2019-04-04T10:21:50.344Z,88256.00
2019-04-04T10:22:50.334Z,89216.00
2019-04-04T10:23:50.326Z,90144.00
2019-04-04T10:24:50.316Z,87584.00
2019-04-04T10:25:50.298Z,88672.00
2019-04-04T10:26:50.313Z,87072.00
2019-04-04T10:27:50.595Z,87744.00
2019-04-04T10:28:50.276Z,89984.00
2019-04-04T10:29:50.263Z,90144.00
2019-04-04T10:30:50.248Z,89984.00
2019-04-04T10:31:50.246Z,90944.00
2019-04-04T10:32:50.280Z,89056.00
2019-04-04T10:33:50.222Z,92416.00
2019-04-04T10:35:00.206Z,89984.00
2019-04-04T10:35:50.205Z,91744.00
2019-04-04T10:36:50.195Z,87296.00
2019-04-04T10:37:50.178Z,91776.00
2019-04-04T10:38:50.186Z,85632.00
2019-04-04T10:39:50.160Z,94752.00
2019-04-04T10:40:50.150Z,88512.00
2019-04-04T10:41:50.144Z,93824.00
2019-04-04T10:42:50.134Z,90752.00
2019-04-04T10:43:50.162Z,89280.00
2019-04-04T10:44:50.111Z,90144.00
2019-04-04T10:45:50.105Z,90336.00
2019-04-04T10:46:50.090Z,89056.00
2019-04-04T10:47:50.101Z,88576.00
2019-04-04T10:48:50.075Z,87008.00
2019-04-04T10:49:50.300Z,89280.00
2019-04-04T10:50:50.068Z,90272.00
2019-04-04T10:51:50.042Z,91552.00
2019-04-04T10:52:50.032Z,89216.00
2019-04-04T10:53:50.033Z,88352.00
2019-04-04T10:54:50.066Z,83936.00
2019-04-04T10:55:50.009Z,81568.00
2019-04-04T10:56:49.996Z,82144.00
2019-04-04T10:57:49.985Z,83040.00
2019-04-04T10:58:49.977Z,84800.00
2019-04-04T10:59:49.967Z,85504.00
2019-04-04T11:00:49.994Z,88224.00
2019-04-04T11:01:49.988Z,88736.00
2019-04-04T11:02:49.946Z,87456.00
2019-04-04T11:03:49.925Z,89248.00
2019-04-04T11:04:49.934Z,89504.00
2019-04-04T11:06:02.372Z,91424.00
2019-04-04T11:06:49.913Z,88352.00
2019-04-04T11:07:49.890Z,89408.00
2019-04-04T11:08:49.881Z,89920.00
2019-04-04T11:09:49.869Z,88544.00
2019-04-04T11:10:50.344Z,91552.00
2019-04-04T11:11:49.857Z,88992.00
2019-04-04T11:12:49.845Z,90336.00
2019-04-04T11:13:49.827Z,89792.00
2019-04-04T11:14:49.832Z,88992.00
2019-04-04T11:15:49.843Z,90240.00
2019-04-04T11:16:49.798Z,88864.00
2019-04-04T11:17:49.790Z,88960.00
2019-04-04T11:18:49.782Z,89216.00
2019-04-04T11:19:49.770Z,90720.00
2019-04-04T11:20:49.766Z,90144.00
2019-04-04T11:21:49.828Z,88576.00
2019-04-04T11:22:49.740Z,89248.00
2019-04-04T11:23:49.733Z,87968.00
2019-04-04T11:24:49.724Z,87264.00
2019-04-04T11:25:49.716Z,86720.00
2019-04-04T11:26:49.711Z,85888.00
2019-04-04T11:27:49.704Z,84544.00
2019-04-04T11:28:49.689Z,85760.00
2019-04-04T11:29:49.680Z,84992.00
2019-04-04T11:30:49.662Z,90272.00
2019-04-04T11:31:49.676Z,87488.00
2019-04-04T11:32:49.646Z,87264.00
2019-04-04T11:33:49.633Z,84832.00
2019-04-04T11:34:53.265Z,86080.00
2019-04-04T11:35:49.614Z,85568.00
2019-04-04T11:36:59.891Z,89024.00
2019-04-04T11:37:49.595Z,87712.00
2019-04-04T11:38:49.592Z,86912.00
2019-04-04T11:39:54.745Z,87488.00
2019-04-04T11:40:50.570Z,87200.00
2019-04-04T11:41:49.557Z,88224.00
2019-04-04T11:42:49.582Z,87200.00
2019-04-04T11:43:49.544Z,87488.00
2019-04-04T11:44:49.529Z,87264.00
2019-04-04T11:45:49.523Z,86624.00
2019-04-04T11:46:49.514Z,84704.00
2019-04-04T11:47:49.497Z,85984.00
2019-04-04T11:48:49.502Z,86944.00
2019-04-04T11:49:49.485Z,87072.00
2019-04-04T11:50:49.473Z,86880.00
2019-04-04T11:51:49.464Z,87424.00
2019-04-04T11:52:49.457Z,85056.00
2019-04-04T11:53:49.450Z,86848.00
2019-04-04T11:54:49.430Z,85920.00
2019-04-04T11:55:49.426Z,87264.00
2019-04-04T11:56:49.410Z,88416.00
2019-04-04T11:57:49.408Z,86720.00
2019-04-04T11:58:49.437Z,86400.00
2019-04-04T11:59:49.380Z,87552.00
2019-04-04T12:00:49.373Z,86976.00
2019-04-04T12:01:49.360Z,87392.00
2019-04-04T12:02:49.356Z,86240.00
2019-04-04T12:03:49.351Z,85216.00
2019-04-04T12:04:49.351Z,84256.00
2019-04-04T12:05:49.330Z,84192.00
2019-04-04T12:06:49.315Z,85696.00
2019-04-04T12:07:59.560Z,82432.00
2019-04-04T12:08:49.302Z,84512.00
2019-04-04T12:09:49.286Z,83648.00
2019-04-04T12:10:49.313Z,84448.00
2019-04-04T12:11:49.266Z,83328.00
2019-04-04T12:12:49.259Z,84480.00
2019-04-04T12:13:50.521Z,83808.00